Time;durP1;ratioP1;P1;durP2;ratioP2;P2;SDS_P1;SDS_P2;PMS_P1;PMS_P2;Temp;Humidity;BMP_temperature;BMP_pressure;BME280_temperature;BME280_humidity;BME280_pressure;Samples;Min_cycle;Max_cycle;Signal;HPM_P1;HPM_P2
2022/01/11 00:01:49;;;;;;;8.30;6.20;;;;;;;-4.29;78.70;101023.51;1721866;81;21031;-62
2022/01/11 00:04:17;;;;;;;9.50;6.77;;;;;;;-4.33;78.88;101033.70;1745555;81;21486;-61
2022/01/11 00:06:49;;;;;;;8.17;5.83;;;;;;;-4.33;79.23;101027.19;1746264;82;21011;-61
2022/01/11 00:09:22;;;;;;;9.93;6.37;;;;;;;-4.32;78.79;101028.39;1741271;81;21085;-62
2022/01/11 00:11:49;;;;;;;10.83;6.73;;;;;;;-4.32;78.76;101030.16;1742298;80;21006;-60
2022/01/11 00:14:15;;;;;;;7.67;5.67;;;;;;;-4.35;78.76;101032.47;1742302;80;21073;-59
2022/01/11 00:16:42;;;;;;;7.30;6.07;;;;;;;-4.36;78.50;101033.84;1737566;80;21063;-60
2022/01/11 00:19:09;;;;;;;10.93;6.37;;;;;;;-4.35;78.45;101031.59;1737816;80;21057;-59
2022/01/11 00:21:44;;;;;;;5.72;5.15;;;;;;;-4.31;78.30;101036.59;1742913;80;21478;-60
2022/01/11 00:26:50;;;;;;;6.47;4.93;;;;;;;-4.16;77.77;101038.06;1726821;82;21108;-59
2022/01/11 00:29:16;;;;;;;5.60;4.22;;;;;;;-4.16;77.03;101045.41;1722467;82;21036;-60
2022/01/11 00:31:45;;;;;;;6.53;4.75;;;;;;;-4.19;76.36;101049.45;1702556;82;21005;-61
2022/01/11 00:34:10;;;;;;;6.23;4.27;;;;;;;-4.18;75.60;101049.85;1738976;81;20988;-62
2022/01/11 00:36:42;;;;;;;4.85;4.17;;;;;;;-4.19;74.74;101052.06;1740520;82;21059;-61
2022/01/11 00:39:10;;;;;;;4.87;3.30;;;;;;;-4.24;74.60;101041.48;1743867;81;21558;-61
2022/01/11 00:41:43;;;;;;;5.23;3.60;;;;;;;-4.31;73.46;101054.81;1750416;81;21036;-62
2022/01/11 00:44:10;;;;;;;5.27;3.73;;;;;;;-4.36;73.19;101063.77;1737664;81;21064;-60
2022/01/11 00:46:40;;;;;;;3.70;3.40;;;;;;;-4.39;72.59;101060.00;1748619;80;21062;-60
2022/01/11 00:49:07;;;;;;;5.60;3.93;;;;;;;-4.37;72.68;101055.56;1743039;80;20996;-62
2022/01/11 00:51:33;;;;;;;3.93;3.00;;;;;;;-4.34;72.98;101056.72;1741015;80;21037;-59
2022/01/11 00:53:59;;;;;;;5.25;4.75;;;;;;;-4.30;73.51;101056.95;1743298;80;21102;-69
2022/01/11 00:56:26;;;;;;;7.67;3.35;;;;;;;-4.66;73.32;101001.88;1720222;81;21641;-69
2022/01/11 00:58:52;;;;;;;6.87;4.65;;;;;;;-4.30;73.74;101062.16;1721257;82;21002;-60
2022/01/11 01:01:18;;;;;;;6.85;4.90;;;;;;;-4.33;74.06;101065.77;1720761;82;21112;-60
2022/01/11 01:03:44;;;;;;;7.95;4.72;;;;;;;-4.36;74.69;101065.06;1721701;82;21566;-60
2022/01/11 01:06:11;;;;;;;5.92;4.22;;;;;;;-4.41;74.85;101065.27;1721830;82;21054;-60
2022/01/11 01:08:38;;;;;;;5.10;4.27;;;;;;;-4.44;74.57;101077.63;1723241;82;21061;-61
2022/01/11 01:11:05;;;;;;;5.30;4.10;;;;;;;-4.51;74.59;101073.16;1691216;82;21065;-62
2022/01/11 01:13:33;;;;;;;5.63;4.50;;;;;;;-4.52;74.44;101081.86;1714754;82;21095;-60
2022/01/11 01:16:01;;;;;;;6.50;4.77;;;;;;;-4.47;74.11;101079.05;1723765;82;21384;-60
2022/01/11 01:18:45;;;;;;;5.00;4.10;;;;;;;-4.39;74.12;101078.22;1717582;82;21129;-64
2022/01/11 01:21:11;;;;;;;5.08;4.58;;;;;;;-4.76;73.79;101006.69;1717045;82;21018;-61
2022/01/11 01:23:38;;;;;;;7.95;4.95;;;;;;;-4.35;74.01;101084.52;1698746;83;21152;-63
2022/01/11 01:26:05;;;;;;;;;;;;;;;-4.36;73.86;101084.59;1665056;83;21073;-62
2022/01/11 01:28:32;;;;;;;5.43;4.70;;;;;;;-4.38;74.37;101078.62;1702185;83;20183;-63
2022/01/11 01:31:02;;;;;;;7.15;5.25;;;;;;;-4.39;74.96;101079.52;1702005;83;21127;-61
2022/01/11 01:33:33;;;;;;;7.03;4.47;;;;;;;-4.33;74.99;101083.98;1693465;83;21515;-62
2022/01/11 01:36:02;;;;;;;5.47;4.47;;;;;;;-4.27;74.76;101088.05;1694205;83;21024;-60
2022/01/11 01:38:30;;;;;;;6.57;5.87;;;;;;;-4.28;74.49;101096.77;1690485;83;21050;-62
2022/01/11 01:41:07;;;;;;;5.47;4.27;;;;;;;-4.30;74.60;101092.09;1680613;83;20993;-60
2022/01/11 01:43:28;;;;;;;8.80;6.00;;;;;;;-4.34;74.71;101097.90;1695829;83;21015;-65
2022/01/11 01:45:58;;;;;;;6.73;5.17;;;;;;;-4.37;74.83;101093.30;1683461;83;21294;-60
2022/01/11 01:48:22;;;;;;;5.93;4.57;;;;;;;-4.34;75.08;101097.06;1644468;85;21010;-62
2022/01/11 01:50:49;;;;;;;6.72;5.03;;;;;;;-4.34;74.35;101105.70;1656212;85;21045;-65
2022/01/11 01:53:17;;;;;;;7.20;5.10;;;;;;;-4.35;74.17;101097.97;1652403;85;21130;-61
2022/01/11 01:55:46;;;;;;;6.90;4.80;;;;;;;-4.36;74.28;101101.51;1691930;82;21052;-61
2022/01/11 01:58:14;;;;;;;6.23;4.63;;;;;;;-4.39;74.61;101104.25;1705791;82;21462;-61
2022/01/11 02:00:46;;;;;;;4.83;3.83;;;;;;;-4.48;74.37;101109.88;1696030;83;20998;-60
2022/01/11 02:03:14;;;;;;;6.93;4.77;;;;;;;-4.55;75.34;101110.19;1690040;84;21515;-60
2022/01/11 02:05:43;;;;;;;4.20;3.70;;;;;;;-4.56;75.19;101116.32;1683194;83;21035;-59
2022/01/11 02:08:10;;;;;;;5.43;4.33;;;;;;;-4.58;75.52;101114.69;1692492;83;21033;-60
2022/01/11 02:10:41;;;;;;;7.33;4.93;;;;;;;-4.61;75.71;101119.59;1688803;84;21083;-61
2022/01/11 02:13:10;;;;;;;5.63;4.13;;;;;;;-4.60;75.95;101113.91;1687901;82;20986;-63
2022/01/11 02:15:37;;;;;;;7.53;5.47;;;;;;;-4.59;75.75;101114.31;1706161;83;21077;-60
2022/01/11 02:18:16;;;;;;;6.10;4.13;;;;;;;-4.60;75.69;101117.35;1704930;83;21028;-60
2022/01/11 02:20:46;;;;;;;7.57;5.40;;;;;;;-4.57;75.87;101117.22;1711333;83;21474;-61
2022/01/11 02:23:15;;;;;;;9.23;4.73;;;;;;;-4.57;75.73;101119.83;1695238;81;21097;-64
2022/01/11 02:25:42;;;;;;;6.73;4.20;;;;;;;-4.59;75.42;101119.05;1686007;84;21247;-60
2022/01/11 02:28:15;;;;;;;6.83;5.03;;;;;;;-4.56;74.87;101118.92;1688158;84;21525;-59
2022/01/11 02:30:42;;;;;;;7.03;5.20;;;;;;;-4.58;75.19;101114.22;1680023;84;21109;-62
2022/01/11 02:33:32;;;;;;;6.90;5.40;;;;;;;-4.59;75.01;101120.36;1686378;83;21026;-59
2022/01/11 02:35:58;;;;;;;7.37;5.23;;;;;;;-4.64;75.03;101115.81;1687697;83;21090;-63
2022/01/11 02:38:25;;;;;;;5.30;4.80;;;;;;;-4.67;75.33;101116.41;1688046;83;21085;-60
2022/01/11 02:40:51;;;;;;;;;;;;;;;-4.63;75.44;101113.61;1655588;83;21086;-60
2022/01/11 02:43:17;;;;;;;10.70;4.77;;;;;;;-4.63;75.16;101105.81;1690213;83;20150;-62
2022/01/11 02:45:44;;;;;;;6.17;4.40;;;;;;;-4.70;75.41;101114.34;1680185;83;21022;-59
2022/01/11 02:48:11;;;;;;;;;;;;;;;-4.69;75.80;101119.08;1627662;87;21574;-59
2022/01/11 02:50:38;;;;;;;8.85;5.40;;;;;;;-4.67;75.78;101125.52;1640901;86;20142;-62
2022/01/11 02:53:04;;;;;;;7.62;5.12;;;;;;;-4.71;75.87;101130.02;1643683;86;21045;-62
2022/01/11 02:55:37;;;;;;;6.83;4.53;;;;;;;-4.75;75.71;101125.41;1647255;86;21307;-59
2022/01/11 02:57:59;;;;;;;6.93;5.23;;;;;;;-5.17;76.08;101069.72;1633144;86;21106;-60
2022/01/11 03:00:27;;;;;;;6.27;3.93;;;;;;;-4.76;75.54;101135.91;1640582;86;21102;-61
2022/01/11 03:02:54;;;;;;;9.03;4.63;;;;;;;-4.75;75.55;101140.17;1643960;86;21133;-62
2022/01/11 03:05:22;;;;;;;4.27;3.47;;;;;;;-4.72;75.38;101140.05;1642066;86;21010;-61
2022/01/11 03:07:49;;;;;;;7.15;4.33;;;;;;;-4.68;74.71;101132.95;1639478;86;21065;-61
2022/01/11 03:10:50;;;;;;;4.80;3.90;;;;;;;-4.68;74.32;101136.39;1645114;86;21157;-61
2022/01/11 03:12:51;;;;;;;7.30;4.83;;;;;;;-4.66;73.96;101135.02;1638249;85;21086;-61
2022/01/11 03:15:17;;;;;;;3.77;3.02;;;;;;;-4.66;73.92;101137.16;1629376;85;21050;-61
2022/01/11 03:17:48;;;;;;;4.30;3.67;;;;;;;-4.64;74.06;101135.33;1640008;85;21077;-60
2022/01/11 03:20:14;;;;;;;4.87;3.90;;;;;;;-4.61;73.93;101127.39;1642012;85;21072;-63
2022/01/11 03:22:41;;;;;;;4.62;3.67;;;;;;;-4.54;73.68;101134.00;1648113;85;21064;-65
2022/01/11 03:25:09;;;;;;;;;;;;;;;-4.46;73.66;101132.77;1715816;83;21493;-64
2022/01/11 03:27:38;;;;;;;3.03;2.73;;;;;;;-4.42;73.54;101131.27;1704222;83;20175;-59
2022/01/11 03:30:06;;;;;;;5.33;3.33;;;;;;;-4.47;73.85;101136.31;1697499;83;21049;-68
2022/01/11 03:32:34;;;;;;;4.93;3.43;;;;;;;-4.46;74.46;101141.87;1631949;86;21368;-60
2022/01/11 03:35:01;;;;;;;4.25;3.85;;;;;;;-4.88;74.31;101067.07;1645566;86;21010;-60
2022/01/11 03:37:27;;;;;;;4.67;3.63;;;;;;;-4.43;74.75;101148.25;1654464;85;21121;-62
2022/01/11 03:39:55;;;;;;;4.83;3.77;;;;;;;-4.42;74.67;101148.19;1653692;85;21130;-64
2022/01/11 03:42:21;;;;;;;5.00;3.62;;;;;;;-4.40;74.67;101145.05;1650801;85;21046;-62
2022/01/11 03:44:49;;;;;;;6.92;4.25;;;;;;;-4.37;74.85;101145.35;1654210;85;21072;-60
2022/01/11 03:47:15;;;;;;;5.43;3.90;;;;;;;-4.39;75.06;101144.59;1632521;86;21027;-60
2022/01/11 03:49:41;;;;;;;5.80;4.20;;;;;;;-4.35;75.46;101156.53;1659820;85;21512;-64
2022/01/11 03:52:08;;;;;;;6.92;4.58;;;;;;;-4.31;75.52;101152.89;1692358;83;21544;-61
2022/01/11 03:54:50;;;;;;;;;;;;;;;-4.30;75.42;101158.00;1663938;85;21563;-61
2022/01/11 03:57:13;;;;;;;4.90;4.07;;;;;;;-4.31;75.39;101157.63;1655327;85;20113;-61
2022/01/11 03:59:42;;;;;;;4.97;4.17;;;;;;;-4.36;75.80;101158.77;1690785;83;21025;-63
2022/01/11 04:02:09;;;;;;;5.90;4.97;;;;;;;-4.35;76.15;101154.80;1688422;83;21010;-62
2022/01/11 04:04:36;;;;;;;5.93;4.83;;;;;;;-4.31;76.27;101162.00;1690644;83;21486;-61
2022/01/11 04:07:04;;;;;;;6.87;5.23;;;;;;;-4.26;76.24;101166.52;1689264;83;21443;-60
2022/01/11 04:09:30;;;;;;;6.37;4.77;;;;;;;-4.20;76.36;101171.45;1693778;83;21718;-61
2022/01/11 04:11:58;;;;;;;5.73;4.77;;;;;;;-4.17;76.23;101166.55;1682825;83;21496;-61
2022/01/11 04:14:25;;;;;;;4.47;4.00;;;;;;;-4.15;76.26;101171.22;1690617;83;21097;-60
2022/01/11 04:16:54;;;;;;;6.50;3.83;;;;;;;-4.17;76.23;101171.28;1692538;83;22306;-61
2022/01/11 04:19:21;;;;;;;5.93;4.70;;;;;;;-4.20;76.19;101174.48;1682567;83;21034;-61
2022/01/11 04:21:48;;;;;;;4.83;3.55;;;;;;;-4.23;76.41;101180.70;1686952;83;21039;-63
2022/01/11 04:24:15;;;;;;;5.20;4.23;;;;;;;-4.24;76.54;101182.06;1726276;82;21153;-63
2022/01/11 04:26:41;;;;;;;4.00;3.67;;;;;;;-4.24;76.77;101181.59;1732568;82;21007;-62
2022/01/11 04:29:07;;;;;;;5.80;3.95;;;;;;;-4.21;76.97;101180.16;1732186;82;21029;-61
2022/01/11 04:31:34;;;;;;;3.95;3.45;;;;;;;-4.18;76.86;101190.44;1732634;82;21096;-62
2022/01/11 04:34:02;;;;;;;4.33;3.93;;;;;;;-4.17;76.77;101176.95;1710282;80;21070;-66
2022/01/11 04:36:30;;;;;;;4.10;3.30;;;;;;;-4.15;76.62;101179.86;1690572;84;21089;-62
2022/01/11 04:38:56;;;;;;;6.00;3.77;;;;;;;-4.13;76.56;101179.33;1689064;84;21027;-61
2022/01/11 04:41:22;;;;;;;5.85;4.08;;;;;;;-4.17;76.61;101188.67;1698617;84;21105;-61
2022/01/11 04:43:50;;;;;;;3.77;3.33;;;;;;;-4.17;76.60;101191.28;1697699;84;21562;-63
2022/01/11 04:46:18;;;;;;;5.00;4.20;;;;;;;-4.15;77.19;101199.39;1694099;83;21082;-61
2022/01/11 04:48:46;;;;;;;5.67;3.87;;;;;;;-4.08;77.38;101197.82;1692030;84;21495;-62
2022/01/11 04:51:12;;;;;;;4.70;4.03;;;;;;;-4.06;77.70;101199.42;1693496;83;21450;-60
2022/01/11 04:53:38;;;;;;;5.60;5.05;;;;;;;-4.05;77.97;101200.26;1686549;84;21381;-61
2022/01/11 04:56:06;;;;;;;5.25;4.75;;;;;;;-4.06;78.21;101201.20;1697273;84;21042;-62
2022/01/11 04:58:33;;;;;;;5.03;3.73;;;;;;;-4.05;78.09;101202.86;1684599;84;21027;-66
2022/01/11 05:00:59;;;;;;;4.20;3.77;;;;;;;-4.06;78.29;101215.52;1675432;84;21122;-63
2022/01/11 05:03:25;;;;;;;4.65;3.85;;;;;;;-4.08;78.30;101210.37;1663288;85;21048;-61
2022/01/11 05:05:53;;;;;;;4.30;3.57;;;;;;;-4.08;78.61;101214.28;1663380;84;21013;-64
2022/01/11 05:08:20;;;;;;;4.97;3.58;;;;;;;-4.07;78.74;101218.55;1664086;84;21083;-63
2022/01/11 05:10:47;;;;;;;6.20;3.90;;;;;;;-4.07;79.00;101213.81;1665459;84;21593;-62
2022/01/11 05:13:16;;;;;;;5.55;4.33;;;;;;;-4.06;78.95;101224.63;1696476;83;21530;-58
2022/01/11 05:15:44;;;;;;;4.17;3.27;;;;;;;-4.06;78.55;101224.63;1698552;83;21024;-60
2022/01/11 05:18:11;;;;;;;3.87;3.57;;;;;;;-4.05;78.08;101218.48;1700111;83;21086;-60
2022/01/11 05:20:39;;;;;;;5.53;3.50;;;;;;;-4.00;77.57;101224.33;1718458;82;21022;-60
2022/01/11 05:23:08;;;;;;;3.93;3.17;;;;;;;-3.96;77.18;101224.56;1687333;82;21036;-59
2022/01/11 05:25:34;;;;;;;2.60;2.40;;;;;;;-3.92;77.18;101227.41;1695191;84;21098;-61
2022/01/11 05:28:01;;;;;;;3.65;3.35;;;;;;;-3.86;76.43;101247.97;1696506;83;20988;-61
2022/01/11 05:30:29;;;;;;;3.27;2.97;;;;;;;-3.84;75.71;101227.90;1708251;83;21103;-59
2022/01/11 05:32:57;;;;;;;4.73;3.60;;;;;;;-3.88;75.46;101241.99;1691852;84;21026;-60
2022/01/11 05:35:25;;;;;;;3.13;2.43;;;;;;;-3.91;75.56;101243.43;1705071;83;21077;-58
2022/01/11 05:37:52;;;;;;;3.00;2.27;;;;;;;-3.87;75.36;101251.95;1682673;83;22137;-61
2022/01/11 05:40:21;;;;;;;3.43;3.07;;;;;;;-3.86;75.24;101253.62;1694052;83;21559;-60
2022/01/11 05:42:50;;;;;;;3.53;2.90;;;;;;;-3.82;75.03;101260.39;1698380;84;20988;-59
2022/01/11 05:45:18;;;;;;;3.40;2.70;;;;;;;-3.82;74.91;101257.79;1675477;84;21051;-59
2022/01/11 05:47:47;;;;;;;5.70;3.73;;;;;;;-3.91;75.01;101257.76;1660018;85;21099;-61
2022/01/11 05:50:15;;;;;;;4.33;3.13;;;;;;;-3.87;75.64;101275.39;1654622;85;22041;-61
2022/01/11 05:52:42;;;;;;;3.20;2.90;;;;;;;-3.90;75.57;101271.15;1659856;85;21044;-59
2022/01/11 05:55:11;;;;;;;4.78;3.15;;;;;;;-3.86;75.62;101274.02;1663601;85;20999;-60
2022/01/11 05:57:41;;;;;;;3.03;2.40;;;;;;;-3.80;75.47;101275.49;1686430;84;21094;-59
2022/01/11 06:00:12;;;;;;;4.70;3.03;;;;;;;-3.79;75.56;101270.19;1664694;83;21050;-60
2022/01/11 06:02:46;;;;;;;2.62;2.42;;;;;;;-3.77;76.04;101287.92;1717351;83;21662;-60
2022/01/11 06:05:17;;;;;;;2.23;2.03;;;;;;;-3.79;75.36;101283.20;1717997;83;21065;-62
2022/01/11 06:07:44;;;;;;;2.50;2.30;;;;;;;-3.80;75.43;101297.17;1720169;83;20994;-60
2022/01/11 06:10:14;;;;;;;3.17;2.40;;;;;;;-3.84;75.44;101290.42;1723277;83;21057;-60
2022/01/11 06:12:42;;;;;;;4.27;3.10;;;;;;;-3.80;75.73;101291.96;1719688;83;21066;-61
2022/01/11 06:15:10;;;;;;;2.92;2.72;;;;;;;-3.76;75.87;101290.05;1690101;85;20999;-60
2022/01/11 06:17:36;;;;;;;3.93;3.37;;;;;;;-3.75;76.13;101300.41;1718176;83;21003;-62
2022/01/11 06:20:05;;;;;;;2.80;2.60;;;;;;;-3.75;76.12;101295.20;1721393;83;21034;-64
2022/01/11 06:22:32;;;;;;;3.53;3.00;;;;;;;-3.73;76.17;101298.57;1716269;83;21049;-60
2022/01/11 06:25:03;;;;;;;4.22;2.65;;;;;;;-3.69;76.30;101306.22;1723572;83;21640;-60
2022/01/11 06:27:26;;;;;;;2.43;2.23;;;;;;;-3.65;75.45;101293.46;1715722;83;21002;-63
2022/01/11 06:29:52;;;;;;;2.75;2.52;;;;;;;-3.61;74.77;101293.70;1657376;85;21466;-61
2022/01/11 06:32:18;;;;;;;4.97;3.47;;;;;;;-3.56;74.48;101302.98;1688589;84;20970;-62
2022/01/11 06:34:46;;;;;;;2.77;2.45;;;;;;;-3.51;74.54;101302.75;1667771;85;21161;-64
2022/01/11 06:37:13;;;;;;;3.40;3.10;;;;;;;-3.49;74.89;101307.42;1674679;85;21425;-60
2022/01/11 06:39:39;;;;;;;3.40;3.05;;;;;;;-3.46;75.20;101303.84;1667124;85;21568;-60
2022/01/11 06:42:07;;;;;;;3.65;3.35;;;;;;;-3.45;74.99;101314.17;1671914;85;21143;-59
2022/01/11 06:44:34;;;;;;;5.90;4.40;;;;;;;-3.43;75.22;101310.19;1711194;83;21136;-61
2022/01/11 06:47:01;;;;;;;4.60;3.83;;;;;;;-3.43;75.46;101309.72;1723265;83;21002;-61
2022/01/11 06:49:27;;;;;;;3.77;3.47;;;;;;;-3.40;75.67;101311.36;1711376;83;21042;-60
2022/01/11 06:51:53;;;;;;;5.65;4.40;;;;;;;-3.38;75.94;101310.82;1715425;83;21078;-57
2022/01/11 06:54:20;;;;;;;5.15;4.65;;;;;;;-3.38;76.26;101310.35;1715529;83;20999;-59
2022/01/11 06:56:46;;;;;;;4.83;4.10;;;;;;;-3.37;76.71;101318.57;1710213;83;21031;-59
2022/01/11 06:59:13;;;;;;;5.20;4.63;;;;;;;-3.36;77.09;101322.84;1709528;83;21072;-57
2022/01/11 07:01:40;;;;;;;4.65;4.05;;;;;;;-3.36;77.39;101329.84;1709293;83;21042;-58
2022/01/11 07:04:08;;;;;;;5.80;4.17;;;;;;;-3.39;77.78;101330.84;1713899;83;21038;-58
2022/01/11 07:06:39;;;;;;;7.33;4.50;;;;;;;-3.49;78.38;101328.27;1704324;83;21049;-58
2022/01/11 07:09:06;;;;;;;5.43;4.53;;;;;;;-3.52;78.43;101332.35;1710417;83;21047;-63
2022/01/11 07:11:33;;;;;;;4.47;3.97;;;;;;;-3.50;78.75;101330.95;1723601;83;21037;-59
2022/01/11 07:14:03;;;;;;;5.33;3.80;;;;;;;-3.49;79.01;101330.05;1718739;83;21000;-64
2022/01/11 07:16:29;;;;;;;4.53;3.93;;;;;;;-3.55;78.88;101335.93;1717578;83;21082;-64
2022/01/11 07:18:56;;;;;;;7.70;4.63;;;;;;;-3.58;79.23;101336.09;1719826;83;21037;-59
2022/01/11 07:21:23;;;;;;;5.10;4.42;;;;;;;-3.58;79.42;101343.05;1644204;85;20960;-59
2022/01/11 07:23:49;;;;;;;6.60;4.75;;;;;;;-3.53;79.71;101338.47;1645548;86;21062;-63
2022/01/11 07:26:16;;;;;;;6.30;4.10;;;;;;;-3.86;79.79;101269.25;1692626;84;21074;-59
2022/01/11 07:28:42;;;;;;;7.87;5.62;;;;;;;-3.40;79.46;101336.13;1691365;84;21046;-60
2022/01/11 07:31:10;;;;;;;4.40;4.00;;;;;;;-3.43;79.01;101339.70;1685639;84;21066;-60
2022/01/11 07:33:38;;;;;;;7.50;4.63;;;;;;;-3.46;79.07;101342.48;1681675;83;21514;-59
2022/01/11 07:36:05;;;;;;;4.90;3.23;;;;;;;-3.53;78.96;101343.21;1683020;83;20972;-64
2022/01/11 07:38:32;;;;;;;3.40;3.10;;;;;;;-3.59;79.40;101349.19;1696790;83;21643;-59
2022/01/11 07:40:58;;;;;;;19.02;10.30;;;;;;;-3.60;79.11;101348.79;1702850;83;21493;-61
2022/01/11 07:43:26;;;;;;;9.73;6.30;;;;;;;-3.65;79.15;101341.67;1680745;83;21166;-60
2022/01/11 07:45:54;;;;;;;9.20;4.83;;;;;;;-3.65;79.29;101351.63;1684163;83;21041;-60
2022/01/11 07:48:23;;;;;;;6.33;4.20;;;;;;;-3.67;78.90;101346.08;1691665;83;21076;-63
2022/01/11 07:50:51;;;;;;;6.97;3.90;;;;;;;-3.68;78.52;101357.44;1662050;84;21121;-62
2022/01/11 07:53:17;;;;;;;4.03;2.55;;;;;;;-3.68;78.65;101369.16;1680658;83;21041;-63
2022/01/11 07:55:45;;;;;;;4.63;3.03;;;;;;;-3.68;77.54;101354.36;1682534;83;21392;-59
2022/01/11 07:58:13;;;;;;;4.70;2.90;;;;;;;-3.61;76.83;101361.45;1691411;83;21007;-59
2022/01/11 08:00:40;;;;;;;3.37;2.70;;;;;;;-3.58;76.48;101363.45;1702692;83;21042;-60
2022/01/11 08:03:07;;;;;;;4.73;3.23;;;;;;;-3.52;76.49;101363.63;1691627;83;21026;-62
2022/01/11 08:05:36;;;;;;;3.00;2.57;;;;;;;-3.46;76.25;101369.02;1665936;83;21087;-63
2022/01/11 08:08:05;;;;;;;2.53;2.33;;;;;;;-3.39;75.82;101367.77;1693376;83;21590;-60
2022/01/11 08:10:33;;;;;;;2.47;2.03;;;;;;;-3.34;75.36;101360.13;1670135;84;21042;-61
2022/01/11 08:13:02;;;;;;;3.97;3.30;;;;;;;-3.31;75.21;101363.06;1671313;83;21905;-61
2022/01/11 08:15:29;;;;;;;3.50;2.47;;;;;;;-3.35;75.21;101370.18;1682776;85;21388;-63
2022/01/11 08:17:56;;;;;;;4.13;3.00;;;;;;;-3.43;74.99;101367.07;1664036;85;21176;-60
2022/01/11 08:20:23;;;;;;;;;;;;;;;-3.44;75.15;101369.78;1665528;85;21020;-61
2022/01/11 08:22:51;;;;;;;2.67;2.20;;;;;;;-3.43;75.21;101376.20;1664617;84;20154;-61
2022/01/11 08:25:17;;;;;;;2.43;2.17;;;;;;;-3.46;75.21;101373.75;1706912;83;21105;-63
2022/01/11 08:27:44;;;;;;;3.40;2.57;;;;;;;-3.45;75.23;101366.77;1701694;84;21126;-65
2022/01/11 08:30:11;;;;;;;2.77;2.27;;;;;;;-3.40;75.13;101367.41;1705438;84;20957;-60
2022/01/11 08:32:40;;;;;;;3.83;2.60;;;;;;;-3.36;74.85;101373.69;1707159;84;21018;-60
2022/01/11 08:35:08;;;;;;;6.67;3.77;;;;;;;-3.37;75.01;101370.72;1686795;84;21023;-60
2022/01/11 08:37:36;;;;;;;3.37;3.07;;;;;;;-3.43;75.35;101366.23;1672179;84;21093;-60
2022/01/11 08:40:06;;;;;;;3.80;3.37;;;;;;;-3.42;75.85;101371.39;1668521;84;21085;-65
2022/01/11 08:42:34;;;;;;;3.90;3.13;;;;;;;-3.46;76.04;101369.84;1684064;84;21038;-60
2022/01/11 08:45:02;;;;;;;3.03;2.70;;;;;;;-3.49;76.35;101367.38;1652908;85;21019;-62
2022/01/11 08:47:30;;;;;;;3.83;3.53;;;;;;;-3.47;76.52;101372.05;1640402;85;21065;-59
2022/01/11 08:49:59;;;;;;;6.37;5.00;;;;;;;-3.46;76.62;101372.45;1614184;86;21132;-60
2022/01/11 08:52:28;;;;;;;4.47;3.30;;;;;;;-3.46;76.46;101368.55;1635165;86;20979;-63
2022/01/11 08:54:57;;;;;;;4.97;4.47;;;;;;;-3.45;76.76;101370.22;1641023;87;21010;-61
2022/01/11 08:57:24;;;;;;;3.67;2.83;;;;;;;-3.50;76.98;101370.91;1629151;86;20979;-60
2022/01/11 08:59:50;;;;;;;3.63;3.30;;;;;;;-3.47;76.83;101365.53;1689712;83;21502;-60
2022/01/11 09:02:20;;;;;;;5.10;3.70;;;;;;;-3.42;76.80;101377.06;1695423;83;21455;-59
2022/01/11 09:04:45;;;;;;;3.47;2.33;;;;;;;-3.40;76.43;101364.80;1688143;83;21011;-61
2022/01/11 09:07:17;;;;;;;3.80;3.33;;;;;;;-3.40;76.83;101370.84;1690723;83;21069;-60
2022/01/11 09:09:43;;;;;;;3.25;2.95;;;;;;;-3.37;76.51;101365.94;1687172;83;21070;-62
2022/01/11 09:12:15;;;;;;;4.63;3.27;;;;;;;-3.40;76.74;101370.84;1686129;83;21054;-61
2022/01/11 09:14:43;;;;;;;3.03;2.23;;;;;;;-3.39;76.58;101354.30;1683685;83;21034;-58
2022/01/11 09:17:11;;;;;;;6.87;2.95;;;;;;;-3.35;76.58;101367.57;1681400;83;21439;-59
2022/01/11 09:19:39;;;;;;;6.50;2.90;;;;;;;-3.28;76.33;101360.75;1688563;83;21094;-60
2022/01/11 09:22:07;;;;;;;3.30;2.80;;;;;;;-3.19;76.61;101356.39;1694048;83;21042;-59
2022/01/11 09:24:37;;;;;;;3.47;3.03;;;;;;;-3.07;76.59;101356.25;1692483;84;21082;-62
2022/01/11 09:27:05;;;;;;;4.00;3.37;;;;;;;-2.98;76.14;101351.88;1694289;84;21526;-59
2022/01/11 09:29:36;;;;;;;3.20;2.90;;;;;;;-2.93;75.83;101351.20;1691003;84;21021;-60
2022/01/11 09:32:07;;;;;;;4.40;3.37;;;;;;;-2.88;75.99;101347.05;1668473;85;21602;-61
2022/01/11 09:34:37;;;;;;;3.47;3.10;;;;;;;-2.81;75.94;101336.69;1669986;84;22268;-61
2022/01/11 09:37:05;;;;;;;5.00;3.97;;;;;;;-2.76;75.57;101339.92;1669620;83;21101;-62
2022/01/11 09:39:32;;;;;;;6.33;4.33;;;;;;;-2.71;75.70;101344.89;1669950;84;21573;-59
2022/01/11 09:41:59;;;;;;;3.60;2.90;;;;;;;-2.63;75.74;101343.59;1688990;83;21025;-61
2022/01/11 09:44:27;;;;;;;4.30;3.50;;;;;;;-2.53;75.53;101345.27;1679995;82;21130;-61
2022/01/11 09:46:54;;;;;;;5.47;3.90;;;;;;;-2.51;74.85;101329.52;1695084;83;21018;-63
2022/01/11 09:49:20;;;;;;;4.22;3.45;;;;;;;-2.52;75.41;101333.05;1696436;83;21081;-61
2022/01/11 09:51:48;;;;;;;6.00;5.07;;;;;;;-2.56;75.10;101334.52;1703493;83;21042;-61
2022/01/11 09:54:19;;;;;;;4.67;3.52;;;;;;;-2.52;75.30;101331.73;1707190;83;21070;-61
2022/01/11 09:56:46;;;;;;;4.57;3.00;;;;;;;-2.48;75.41;101330.68;1696187;83;21073;-64
2022/01/11 09:59:15;;;;;;;2.83;2.00;;;;;;;-2.42;75.40;101332.97;1698609;83;21060;-63
2022/01/11 10:03:20;;;;;;;4.33;3.93;;;;;;;-2.35;74.27;101331.25;1784604;78;23041;-60
2022/01/11 10:05:48;;;;;;;3.63;3.33;;;;;;;-2.34;74.23;101338.62;1746432;80;22207;-61
2022/01/11 10:08:30;;;;;;;3.53;2.97;;;;;;;-2.26;74.35;101324.71;1746348;80;21041;-60
2022/01/11 10:10:58;;;;;;;3.83;3.27;;;;;;;-2.16;74.57;101337.65;1745436;80;21490;-61
2022/01/11 10:13:36;;;;;;;3.40;3.13;;;;;;;-2.07;74.36;101334.16;1718595;81;21497;-61
2022/01/11 10:16:24;;;;;;;4.00;2.80;;;;;;;-1.99;74.55;101329.38;1721033;81;21108;-61
2022/01/11 10:18:56;;;;;;;2.93;2.60;;;;;;;-1.95;74.37;101332.20;1649623;85;21028;-61
2022/01/11 10:21:42;;;;;;;3.23;2.50;;;;;;;-1.99;74.11;101334.61;1699155;83;21610;-59
2022/01/11 10:24:39;;;;;;;2.60;1.90;;;;;;;-2.04;73.82;101337.92;1661650;83;20979;-61
2022/01/11 10:27:22;;;;;;;3.87;2.87;;;;;;;-2.09;74.32;101338.18;1676278;84;21011;-60
2022/01/11 10:29:53;;;;;;;4.70;2.63;;;;;;;-2.16;74.99;101331.12;1667663;84;21030;-62
2022/01/11 10:32:26;;;;;;;4.70;2.93;;;;;;;-2.11;75.23;101337.42;1666325;84;21660;-62
2022/01/11 10:35:11;;;;;;;5.30;3.13;;;;;;;-2.07;74.49;101335.46;1623410;82;21248;-63
2022/01/11 10:37:44;;;;;;;3.10;2.80;;;;;;;-2.07;74.38;101333.72;1617157;87;21407;-61
2022/01/11 10:40:32;;;;;;;4.03;2.90;;;;;;;-2.10;74.96;101330.42;1623091;87;21460;-60
2022/01/11 10:43:00;;;;;;;2.73;1.70;;;;;;;-2.13;75.19;101333.19;1626587;87;21049;-62
2022/01/11 10:45:37;;;;;;;4.50;3.00;;;;;;;-2.24;75.33;101334.61;1621849;86;21510;-59
2022/01/11 10:48:13;;;;;;;4.85;2.42;;;;;;;-2.26;75.24;101341.69;1618319;87;21049;-65
2022/01/11 10:50:44;;;;;;;3.90;2.30;;;;;;;-2.31;75.29;101338.47;1617673;87;21053;-59
2022/01/11 10:53:18;;;;;;;2.40;1.70;;;;;;;-2.38;75.10;101336.62;1595187;88;21021;-64
2022/01/11 10:55:55;;;;;;;4.03;3.33;;;;;;;-2.41;75.36;101342.03;1627789;85;21092;-61
2022/01/11 10:58:24;;;;;;;2.90;2.60;;;;;;;-2.45;75.52;101327.89;1643678;85;21060;-61
2022/01/11 11:00:56;;;;;;;3.57;2.60;;;;;;;-2.52;75.73;101340.44;1639307;85;21064;-60
2022/01/11 11:03:26;;;;;;;2.83;2.57;;;;;;;-2.59;75.74;101339.89;1639989;86;21600;-62
2022/01/11 11:06:07;;;;;;;3.97;3.10;;;;;;;-2.64;76.36;101337.97;1647065;85;21068;-62
2022/01/11 11:08:40;;;;;;;2.97;2.47;;;;;;;-2.74;76.26;101341.98;1659383;84;21063;-61
2022/01/11 11:11:15;;;;;;;5.77;3.03;;;;;;;-2.73;77.01;101337.16;1668196;81;21048;-62
2022/01/11 11:13:48;;;;;;;4.33;3.30;;;;;;;-2.72;76.47;101338.84;1657968;84;21019;-61
2022/01/11 11:16:25;;;;;;;5.83;3.63;;;;;;;-2.71;76.05;101341.84;1663232;84;21035;-59
2022/01/11 11:18:57;;;;;;;4.10;2.70;;;;;;;-2.67;76.30;101341.23;1664044;84;21159;-65
2022/01/11 11:21:32;;;;;;;5.13;4.27;;;;;;;-2.62;75.94;101345.73;1658653;84;21127;-60
2022/01/11 11:24:16;;;;;;;7.03;3.90;;;;;;;-2.49;75.59;101342.03;1640032;83;21058;-62
2022/01/11 11:26:49;;;;;;;5.80;4.10;;;;;;;-2.37;74.72;101333.11;1631299;85;21519;-59
2022/01/11 11:29:26;;;;;;;4.57;3.60;;;;;;;-2.33;73.50;101340.79;1635501;86;21071;-61
2022/01/11 11:31:53;;;;;;;4.67;2.97;;;;;;;-2.29;72.97;101342.31;1640795;85;21023;-61
2022/01/11 11:34:22;;;;;;;4.40;3.47;;;;;;;-2.30;72.99;101338.83;1645963;83;21076;-60
2022/01/11 11:36:49;;;;;;;3.73;3.17;;;;;;;-2.25;73.16;101341.22;1649528;84;21107;-61
2022/01/11 11:39:21;;;;;;;3.90;3.20;;;;;;;-2.24;72.75;101350.28;1656904;84;21104;-60